createdAt,value
2018-07-20T00:00:21.789Z,4.37
2018-07-20T00:02:50.364Z,4.40
2018-07-20T00:05:18.980Z,4.27
2018-07-20T00:07:47.620Z,4.37
2018-07-20T00:10:16.350Z,4.30
2018-07-20T00:12:51.193Z,3.90
2018-07-20T00:15:19.844Z,4.27
2018-07-20T00:17:48.525Z,3.90
2018-07-20T00:20:17.203Z,4.30
2018-07-20T00:22:45.860Z,4.40
2018-07-20T00:25:14.539Z,3.90
2018-07-20T00:27:43.147Z,4.60
2018-07-20T00:30:11.788Z,4.13
2018-07-20T00:32:40.486Z,3.90
2018-07-20T00:35:09.264Z,4.47
2018-07-20T00:37:37.969Z,4.10
2018-07-20T00:40:06.604Z,4.00
2018-07-20T00:42:35.321Z,4.53
2018-07-20T00:45:04.048Z,4.50
2018-07-20T00:47:32.681Z,4.40
2018-07-20T00:50:01.345Z,5.13
2018-07-20T00:52:29.946Z,4.57
2018-07-20T00:54:58.678Z,4.07
2018-07-20T00:57:27.329Z,4.30
2018-07-20T00:59:56.078Z,4.50
2018-07-20T01:02:24.697Z,4.27
2018-07-20T01:04:53.399Z,4.13
2018-07-20T01:07:22.008Z,4.43
2018-07-20T01:09:50.770Z,4.20
2018-07-20T01:12:19.444Z,4.23
2018-07-20T01:14:48.119Z,4.33
2018-07-20T01:17:16.792Z,4.30
2018-07-20T01:19:45.413Z,4.07
2018-07-20T01:22:14.070Z,4.20
2018-07-20T01:24:42.716Z,4.30
2018-07-20T01:27:11.698Z,4.03
2018-07-20T01:29:40.413Z,4.33
2018-07-20T01:32:09.082Z,4.73
2018-07-20T01:34:37.784Z,4.30
2018-07-20T01:37:06.486Z,4.30
2018-07-20T01:39:35.179Z,4.10
2018-07-20T01:42:03.801Z,4.17
2018-07-20T01:44:32.705Z,3.90
2018-07-20T01:47:01.367Z,4.50
2018-07-20T01:49:30.034Z,5.07
2018-07-20T01:51:58.729Z,4.20
2018-07-20T01:54:27.425Z,4.10
2018-07-20T01:56:56.174Z,4.27
2018-07-20T01:59:24.947Z,4.43
2018-07-20T02:01:53.669Z,4.57
2018-07-20T02:04:22.281Z,4.40
2018-07-20T02:06:50.889Z,4.63
2018-07-20T02:09:19.614Z,4.37
2018-07-20T02:11:48.274Z,4.80
2018-07-20T02:14:17.050Z,4.60
2018-07-20T02:16:47.103Z,5.10
2018-07-20T02:19:15.812Z,4.77
2018-07-20T02:21:44.565Z,4.30
2018-07-20T02:24:13.248Z,4.73
2018-07-20T02:26:41.996Z,4.27
2018-07-20T02:29:10.610Z,5.27
2018-07-20T02:31:39.418Z,4.73
2018-07-20T02:34:08.367Z,4.90
2018-07-20T02:36:37.104Z,4.63
2018-07-20T02:39:09.151Z,4.73
2018-07-20T02:41:37.965Z,4.30
2018-07-20T02:44:07.011Z,4.77
2018-07-20T02:46:35.829Z,4.90
2018-07-20T02:49:04.610Z,5.20
2018-07-20T02:51:33.370Z,5.13
2018-07-20T02:54:02.084Z,4.73
2018-07-20T02:56:30.896Z,5.23
2018-07-20T02:58:59.545Z,5.33
2018-07-20T03:01:28.359Z,4.97
2018-07-20T03:03:57.019Z,4.90
2018-07-20T03:06:25.616Z,4.70
2018-07-20T03:08:54.305Z,4.90
2018-07-20T03:11:22.966Z,4.83
2018-07-20T03:13:51.678Z,4.63
2018-07-20T03:16:20.359Z,5.00
2018-07-20T03:18:49.062Z,4.80
2018-07-20T03:21:17.727Z,4.67
2018-07-20T03:23:46.341Z,4.90
2018-07-20T03:26:15.005Z,4.70
2018-07-20T03:28:43.717Z,4.80
2018-07-20T03:31:35.754Z,4.90
2018-07-20T03:34:04.399Z,4.73
2018-07-20T03:36:33.078Z,5.13
2018-07-20T03:39:01.759Z,5.20
2018-07-20T03:41:30.429Z,5.33
2018-07-20T03:43:59.189Z,5.27
2018-07-20T03:46:27.861Z,5.60
2018-07-20T03:48:56.592Z,4.73
2018-07-20T03:51:25.264Z,5.97
2018-07-20T03:53:53.898Z,5.30
2018-07-20T03:56:22.634Z,5.13
2018-07-20T03:58:51.332Z,5.10
2018-07-20T04:01:20.096Z,4.83
2018-07-20T04:03:48.845Z,5.40
2018-07-20T04:06:19.272Z,5.10
2018-07-20T04:08:48.086Z,4.80
2018-07-20T04:11:16.766Z,4.90
2018-07-20T04:13:45.479Z,5.63
2018-07-20T04:16:14.157Z,5.33
2018-07-20T04:18:42.874Z,5.00
2018-07-20T04:21:11.601Z,5.50
2018-07-20T04:23:40.439Z,5.53
2018-07-20T04:26:09.090Z,5.10
2018-07-20T04:28:37.787Z,5.67
2018-07-20T04:31:06.897Z,5.33
2018-07-20T04:33:35.576Z,5.07
2018-07-20T04:36:04.352Z,5.40
2018-07-20T04:38:33.033Z,5.80
2018-07-20T04:41:01.829Z,5.17
2018-07-20T04:43:30.580Z,5.20
2018-07-20T04:45:59.265Z,5.30
2018-07-20T04:48:27.962Z,5.13
2018-07-20T04:50:56.705Z,5.10
2018-07-20T04:53:25.437Z,5.13
2018-07-20T04:55:54.146Z,5.07
2018-07-20T04:58:22.789Z,4.97
2018-07-20T05:00:51.423Z,5.07
2018-07-20T05:03:20.046Z,4.90
2018-07-20T05:05:52.117Z,5.00
2018-07-20T05:08:20.782Z,5.97
2018-07-20T05:10:49.521Z,4.53
2018-07-20T05:13:18.457Z,4.87
2018-07-20T05:15:47.236Z,4.37
2018-07-20T05:18:15.973Z,5.10
2018-07-20T05:20:44.655Z,5.10
2018-07-20T05:23:13.350Z,5.40
2018-07-20T05:25:42.041Z,5.17
2018-07-20T05:28:10.692Z,4.97
2018-07-20T05:30:39.433Z,5.03
2018-07-20T05:33:08.109Z,5.60
2018-07-20T05:35:36.866Z,5.17
2018-07-20T05:38:05.692Z,5.50
2018-07-20T05:40:34.462Z,5.40
2018-07-20T05:43:03.150Z,5.70
2018-07-20T05:45:31.896Z,5.50
2018-07-20T05:48:00.606Z,5.80
2018-07-20T05:50:29.299Z,5.87
2018-07-20T05:52:58.043Z,6.17
2018-07-20T05:55:28.893Z,5.47
2018-07-20T05:57:57.608Z,5.37
2018-07-20T06:00:26.241Z,5.90
2018-07-20T06:02:54.933Z,6.10
2018-07-20T06:05:23.570Z,5.77
2018-07-20T06:07:52.315Z,6.03
2018-07-20T06:10:20.951Z,5.70
2018-07-20T06:12:49.581Z,5.50
2018-07-20T06:15:18.467Z,5.63
2018-07-20T06:17:47.378Z,5.87
2018-07-20T06:20:16.137Z,5.53
2018-07-20T06:22:44.852Z,4.97
2018-07-20T06:25:13.742Z,4.77
2018-07-20T06:27:42.370Z,5.23
2018-07-20T06:30:11.097Z,4.97
2018-07-20T06:32:39.718Z,5.03
2018-07-20T06:35:16.726Z,5.27
2018-07-20T06:37:45.353Z,5.53
2018-07-20T06:40:14.252Z,5.30
2018-07-20T06:42:42.958Z,6.13
2018-07-20T06:45:11.542Z,6.50
2018-07-20T06:47:40.217Z,6.40
2018-07-20T06:50:13.975Z,5.20
2018-07-20T06:52:47.203Z,5.83
2018-07-20T06:55:15.814Z,5.50
2018-07-20T06:57:44.670Z,6.03
2018-07-20T07:00:13.310Z,5.17
2018-07-20T07:02:42.130Z,5.53
2018-07-20T07:05:11.918Z,5.17
2018-07-20T07:07:40.693Z,4.57
2018-07-20T07:10:09.922Z,4.67
2018-07-20T07:12:39.225Z,4.80
2018-07-20T07:15:07.838Z,4.30
2018-07-20T07:17:36.530Z,4.40
2018-07-20T07:20:05.420Z,4.57
2018-07-20T07:22:34.106Z,3.93
2018-07-20T07:25:02.869Z,4.40
2018-07-20T07:27:31.572Z,4.40
2018-07-20T07:30:00.222Z,3.50
2018-07-20T07:32:29.021Z,3.90
2018-07-20T07:34:57.919Z,4.00
2018-07-20T07:37:26.621Z,3.70
2018-07-20T07:39:55.256Z,3.63
2018-07-20T07:42:24.023Z,3.40
2018-07-20T07:44:52.715Z,3.50
2018-07-20T07:47:21.443Z,3.80
2018-07-20T07:49:50.323Z,3.77
2018-07-20T07:52:18.947Z,3.90
2018-07-20T07:54:47.666Z,3.60
2018-07-20T07:57:16.258Z,3.23
2018-07-20T07:59:44.911Z,3.40
2018-07-20T08:02:13.525Z,3.50
2018-07-20T08:04:42.168Z,3.80
2018-07-20T08:07:10.962Z,3.63
2018-07-20T08:09:39.807Z,3.20
2018-07-20T08:12:09.129Z,3.90
2018-07-20T08:14:37.818Z,3.30
2018-07-20T08:17:06.554Z,3.80
2018-07-20T08:19:35.225Z,3.33
2018-07-20T08:22:03.914Z,3.13
2018-07-20T08:24:32.545Z,3.70
2018-07-20T08:27:01.187Z,3.50
2018-07-20T08:29:29.864Z,3.43
2018-07-20T08:31:58.409Z,3.67
2018-07-20T08:34:27.046Z,3.40
2018-07-20T08:36:55.710Z,2.97
2018-07-20T08:39:24.511Z,3.30
2018-07-20T08:41:53.141Z,3.00
2018-07-20T08:44:22.141Z,3.13
2018-07-20T08:46:50.748Z,3.40
2018-07-20T08:49:19.745Z,3.00
2018-07-20T08:51:48.310Z,2.87
2018-07-20T08:54:16.931Z,3.00
2018-07-20T08:56:45.603Z,3.00
2018-07-20T08:59:14.317Z,3.00
2018-07-20T09:01:42.954Z,3.13
2018-07-20T09:04:11.677Z,2.80
2018-07-20T09:06:40.341Z,2.90
2018-07-20T09:09:09.734Z,3.07
2018-07-20T09:11:38.544Z,2.57
2018-07-20T09:14:08.129Z,2.60
2018-07-20T09:16:36.697Z,2.87
2018-07-20T09:19:05.297Z,3.10
2018-07-20T09:21:40.866Z,2.87
2018-07-20T09:24:09.554Z,3.10
2018-07-20T09:26:38.181Z,2.83
2018-07-20T09:29:06.810Z,2.80
2018-07-20T09:31:37.761Z,2.90
2018-07-20T09:34:06.881Z,3.00
2018-07-20T09:36:35.505Z,2.70
2018-07-20T09:39:06.217Z,2.73
2018-07-20T09:41:34.906Z,2.60
2018-07-20T09:44:03.546Z,2.80
2018-07-20T09:46:32.201Z,2.53
2018-07-20T09:49:00.906Z,2.47
2018-07-20T09:51:29.485Z,2.73
2018-07-20T09:53:58.192Z,2.83
2018-07-20T09:56:26.807Z,2.73
2018-07-20T09:58:55.389Z,3.10
2018-07-20T10:01:24.258Z,2.97
2018-07-20T10:03:52.893Z,2.70
2018-07-20T10:06:21.525Z,3.00
2018-07-20T10:08:50.282Z,3.30
2018-07-20T10:11:18.872Z,2.97
2018-07-20T10:13:47.513Z,2.97
2018-07-20T10:16:16.286Z,3.10
2018-07-20T10:18:44.997Z,2.80
2018-07-20T10:21:13.676Z,2.90
2018-07-20T10:23:42.261Z,2.67
2018-07-20T10:26:11.155Z,2.80
2018-07-20T10:28:39.751Z,2.80
2018-07-20T10:31:08.360Z,2.63
2018-07-20T10:33:36.948Z,2.53
2018-07-20T10:36:05.746Z,2.50
2018-07-20T10:38:34.340Z,2.43
2018-07-20T10:41:02.965Z,2.30
2018-07-20T10:43:31.576Z,2.03
2018-07-20T10:46:00.182Z,2.50
2018-07-20T10:48:28.725Z,2.70
2018-07-20T10:50:57.296Z,2.70
2018-07-20T10:53:25.941Z,2.70
2018-07-20T10:55:54.637Z,2.83
2018-07-20T10:58:23.295Z,2.87
2018-07-20T11:00:51.924Z,2.67
2018-07-20T11:03:20.456Z,2.40
2018-07-20T11:05:49.065Z,2.53
2018-07-20T11:08:19.797Z,2.40
2018-07-20T11:10:48.356Z,2.40
2018-07-20T11:13:16.913Z,2.47
2018-07-20T11:15:45.619Z,2.53
2018-07-20T11:18:15.090Z,2.20
2018-07-20T11:20:44.036Z,2.43
2018-07-20T11:23:12.672Z,2.57
2018-07-20T11:25:41.603Z,2.60
2018-07-20T11:28:10.288Z,2.60
2018-07-20T11:30:38.988Z,2.80
2018-07-20T11:33:10.965Z,2.30
2018-07-20T11:35:39.607Z,2.70
2018-07-20T11:38:08.133Z,2.60
2018-07-20T11:40:36.706Z,2.10
2018-07-20T11:43:05.300Z,2.47
2018-07-20T11:45:36.217Z,2.30
2018-07-20T11:48:04.772Z,2.40
2018-07-20T11:50:39.568Z,2.40
2018-07-20T11:53:08.244Z,2.37
2018-07-20T11:55:36.836Z,2.53
2018-07-20T11:58:05.397Z,2.30
2018-07-20T12:00:34.050Z,2.10
2018-07-20T12:03:02.655Z,2.17
2018-07-20T12:05:31.179Z,2.50
2018-07-20T12:07:59.784Z,2.43
2018-07-20T12:10:28.704Z,2.20
2018-07-20T12:12:57.341Z,2.37
2018-07-20T12:15:39.982Z,2.20
2018-07-20T12:18:08.597Z,2.43
2018-07-20T12:20:37.181Z,2.53
2018-07-20T12:23:05.856Z,2.30
2018-07-20T12:25:34.428Z,2.47
2018-07-20T12:28:03.060Z,2.33
2018-07-20T12:30:31.681Z,2.43
2018-07-20T12:33:00.344Z,2.10
2018-07-20T12:35:29.015Z,2.40
2018-07-20T12:37:57.735Z,2.50
2018-07-20T12:40:26.264Z,2.53
2018-07-20T12:42:54.939Z,2.60
2018-07-20T12:45:23.523Z,2.60
2018-07-20T12:47:52.371Z,2.60
2018-07-20T12:50:21.105Z,2.60
2018-07-20T12:52:49.757Z,2.57
2018-07-20T12:58:16.831Z,2.60
2018-07-20T13:00:45.411Z,2.60
2018-07-20T13:03:14.132Z,2.90
2018-07-20T13:05:44.834Z,2.77
2018-07-20T13:08:13.564Z,2.87
2018-07-20T13:10:45.326Z,2.70
2018-07-20T13:19:06.580Z,2.80
2018-07-20T13:21:45.001Z,2.43
2018-07-20T13:24:13.702Z,2.50
2018-07-20T13:26:42.374Z,2.53
2018-07-20T13:29:11.071Z,2.60
2018-07-20T13:31:39.754Z,2.53
2018-07-20T13:34:08.432Z,2.60
2018-07-20T13:36:37.027Z,2.30
2018-07-20T13:39:08.776Z,2.40
2018-07-20T13:41:37.557Z,2.43
2018-07-20T13:44:06.233Z,2.40
2018-07-20T13:46:34.926Z,2.20
2018-07-20T13:49:03.488Z,2.53
2018-07-20T13:51:34.473Z,2.00
2018-07-20T13:54:03.117Z,2.27
2018-07-20T13:56:31.816Z,2.10
2018-07-20T13:59:00.409Z,2.33
2018-07-20T14:01:29.268Z,2.40
2018-07-20T14:03:57.975Z,2.30
2018-07-20T14:06:27.706Z,2.50
2018-07-20T14:08:56.542Z,2.40
2018-07-20T14:11:25.354Z,2.53
2018-07-20T14:13:54.043Z,2.60
2018-07-20T14:16:24.121Z,2.50
2018-07-20T14:18:53.327Z,2.67
2018-07-20T14:21:22.013Z,2.20
2018-07-20T14:23:50.739Z,2.20
2018-07-20T14:26:19.419Z,2.57
2018-07-20T14:28:48.253Z,2.40
2018-07-20T14:31:17.128Z,2.57
2018-07-20T14:33:46.017Z,3.10
2018-07-20T14:36:14.967Z,2.33
2018-07-20T14:38:43.835Z,2.60
2018-07-20T14:41:12.622Z,2.67
2018-07-20T14:43:41.298Z,2.57
2018-07-20T14:46:10.014Z,2.50
2018-07-20T14:48:58.842Z,2.63
2018-07-20T14:51:27.691Z,2.77
2018-07-20T14:53:56.381Z,2.70
2018-07-20T14:56:25.185Z,2.60
2018-07-20T14:58:53.995Z,2.50
2018-07-20T15:01:22.767Z,2.90
2018-07-20T15:03:51.387Z,2.57
2018-07-20T15:06:20.004Z,2.60
2018-07-20T15:08:48.612Z,2.73
2018-07-20T15:11:17.204Z,2.63
2018-07-20T15:13:45.931Z,2.70
2018-07-20T15:16:14.479Z,2.60
2018-07-20T15:18:43.141Z,2.43
2018-07-20T15:21:11.697Z,2.80
2018-07-20T15:23:40.288Z,2.90
2018-07-20T15:26:08.883Z,2.80
2018-07-20T15:28:37.439Z,2.60
2018-07-20T15:31:06.242Z,2.40
2018-07-20T15:33:34.912Z,2.50
2018-07-20T15:36:03.573Z,3.00
2018-07-20T15:38:32.333Z,3.03
2018-07-20T15:41:00.944Z,2.70
2018-07-20T15:43:29.604Z,2.50
2018-07-20T15:46:05.966Z,2.77
2018-07-20T15:48:27.024Z,2.97
2018-07-20T15:50:55.636Z,2.80
2018-07-20T15:53:39.144Z,2.80
2018-07-20T15:55:52.845Z,2.83
2018-07-20T15:58:21.420Z,2.70
2018-07-20T16:00:49.999Z,2.60
2018-07-20T16:03:18.604Z,2.80
2018-07-20T16:05:47.308Z,2.77
2018-07-20T16:08:15.895Z,3.10
2018-07-20T16:10:44.539Z,2.60
2018-07-20T16:13:13.108Z,2.67
2018-07-20T16:15:41.728Z,2.77
2018-07-20T16:18:10.319Z,2.43
2018-07-20T16:20:39.091Z,2.60
2018-07-20T16:23:07.708Z,2.77
2018-07-20T16:25:36.698Z,3.00
2018-07-20T16:28:05.279Z,2.50
2018-07-20T16:30:34.036Z,2.93
2018-07-20T16:33:02.695Z,2.83
2018-07-20T16:35:31.332Z,2.73
2018-07-20T16:38:00.008Z,3.37
2018-07-20T16:40:33.089Z,2.80
2018-07-20T16:43:01.872Z,2.80
2018-07-20T16:45:30.683Z,2.80
2018-07-20T16:47:59.299Z,3.00
2018-07-20T16:50:27.864Z,2.70
2018-07-20T16:52:57.075Z,2.77
2018-07-20T16:55:25.760Z,3.10
2018-07-20T16:57:54.512Z,3.13
2018-07-20T17:00:23.141Z,2.73
2018-07-20T17:05:53.460Z,2.73
2018-07-20T17:08:22.003Z,2.80
2018-07-20T17:10:50.602Z,2.93
2018-07-20T17:13:19.252Z,3.00
2018-07-20T17:15:47.778Z,2.93
2018-07-20T17:18:16.360Z,2.80
2018-07-20T17:20:45.058Z,2.80
2018-07-20T17:23:13.629Z,3.17
2018-07-20T17:25:42.219Z,3.30
2018-07-20T17:28:10.886Z,2.93
2018-07-20T17:30:39.525Z,2.93
2018-07-20T17:33:15.428Z,2.90
2018-07-20T17:35:49.493Z,3.47
2018-07-20T17:38:18.172Z,3.20
2018-07-20T17:40:46.871Z,3.13
2018-07-20T17:43:15.467Z,2.73
2018-07-20T17:45:44.147Z,2.87
2018-07-20T17:48:13.020Z,3.10
2018-07-20T17:50:41.596Z,2.83
2018-07-20T17:53:10.275Z,3.10
2018-07-20T17:55:39.036Z,3.47
2018-07-20T17:58:07.656Z,3.30
2018-07-20T18:00:36.331Z,3.03
2018-07-20T18:03:05.032Z,2.90
2018-07-20T18:05:33.616Z,3.20
2018-07-20T18:08:02.669Z,3.50
2018-07-20T18:10:31.482Z,3.23
2018-07-20T18:13:00.102Z,3.63
2018-07-20T18:15:28.698Z,3.10
2018-07-20T18:17:57.395Z,3.07
2018-07-20T18:20:36.447Z,3.17
2018-07-20T18:23:05.350Z,3.00
2018-07-20T18:25:33.991Z,3.20
2018-07-20T18:28:02.726Z,3.20
2018-07-20T18:30:31.349Z,3.00
2018-07-20T18:35:54.433Z,2.87
2018-07-20T18:38:24.481Z,3.47
2018-07-20T18:40:54.354Z,3.43
2018-07-20T18:43:24.220Z,3.10
2018-07-20T18:45:54.115Z,3.23
2018-07-20T18:48:24.065Z,3.57
2018-07-20T18:50:54.028Z,3.37
2018-07-20T18:53:23.845Z,3.13
2018-07-20T18:55:55.773Z,3.13
2018-07-20T18:58:25.843Z,3.40
2018-07-20T19:00:55.914Z,3.03
2018-07-20T19:03:25.360Z,3.10
2018-07-20T19:05:59.187Z,3.23
2018-07-20T19:08:28.101Z,3.43
2018-07-20T19:10:59.932Z,3.47
2018-07-20T19:13:30.033Z,3.43
2018-07-20T19:16:00.465Z,3.30
2018-07-20T19:18:32.257Z,3.40
2018-07-20T19:21:02.169Z,3.40
2018-07-20T19:23:31.126Z,3.97
2018-07-20T19:26:01.032Z,3.90
2018-07-20T19:28:31.011Z,3.63
2018-07-20T19:31:01.053Z,3.97
2018-07-20T19:33:31.781Z,3.60
2018-07-20T19:36:08.407Z,3.30
2018-07-20T19:38:38.684Z,3.47
2018-07-20T19:41:16.311Z,4.17
2018-07-20T19:43:46.472Z,4.40
2018-07-20T19:46:16.263Z,4.17
2018-07-20T19:48:46.561Z,3.17
2018-07-20T19:51:15.944Z,3.17
2018-07-20T19:53:45.580Z,3.30
2018-07-20T19:56:15.023Z,4.50
2018-07-20T19:58:45.075Z,4.73
2018-07-20T20:01:14.730Z,3.43
2018-07-20T20:03:44.489Z,3.20
2018-07-20T20:06:13.167Z,3.63
2018-07-20T20:08:42.994Z,3.10
2018-07-20T20:11:13.031Z,3.10
2018-07-20T20:13:41.696Z,3.27
2018-07-20T20:16:10.782Z,3.50
2018-07-20T20:18:39.462Z,3.03
2018-07-20T20:21:09.021Z,3.37
2018-07-20T20:23:37.668Z,3.70
2018-07-20T20:26:07.000Z,3.40
2018-07-20T20:28:39.659Z,3.30
2018-07-20T20:31:08.760Z,3.67
2018-07-20T20:33:37.785Z,3.80
2018-07-20T20:36:06.549Z,3.60
2018-07-20T20:38:35.176Z,3.70
2018-07-20T20:41:03.894Z,3.83
2018-07-20T20:43:32.514Z,4.73
2018-07-20T20:46:01.169Z,3.83
2018-07-20T20:48:30.863Z,4.20
2018-07-20T20:50:59.490Z,3.40
2018-07-20T20:53:28.108Z,4.07
2018-07-20T20:55:56.753Z,3.77
2018-07-20T20:58:25.770Z,3.37
2018-07-20T21:00:54.592Z,3.30
2018-07-20T21:03:24.097Z,3.50
2018-07-20T21:05:53.131Z,3.50
2018-07-20T21:08:21.913Z,4.13
2018-07-20T21:10:51.270Z,3.80
2018-07-20T21:13:20.000Z,3.70
2018-07-20T21:15:48.652Z,3.60
2018-07-20T21:18:17.309Z,4.00
2018-07-20T21:20:46.005Z,3.43
2018-07-20T21:23:20.989Z,3.77
2018-07-20T21:25:49.878Z,4.00
2018-07-20T21:28:19.391Z,3.80
2018-07-20T21:30:48.153Z,3.87
2018-07-20T21:33:16.881Z,3.83
2018-07-20T21:35:45.740Z,3.87
2018-07-20T21:38:14.540Z,3.60
2018-07-20T21:40:43.237Z,4.30
2018-07-20T21:43:11.926Z,3.93
2018-07-20T21:45:40.589Z,3.97
2018-07-20T21:48:09.312Z,4.50
2018-07-20T21:50:37.956Z,3.80
2018-07-20T21:53:06.595Z,4.30
2018-07-20T21:55:35.308Z,4.63
2018-07-20T21:58:03.968Z,4.30
2018-07-20T22:00:32.636Z,4.40
2018-07-20T22:03:01.305Z,4.20
2018-07-20T22:05:29.978Z,4.80
2018-07-20T22:07:58.641Z,4.40
2018-07-20T22:10:27.274Z,4.20
2018-07-20T22:12:55.926Z,4.73
2018-07-20T22:15:24.531Z,4.50
2018-07-20T22:17:53.181Z,4.33
2018-07-20T22:20:21.878Z,4.57
2018-07-20T22:22:50.499Z,5.17
2018-07-20T22:25:19.155Z,4.93
2018-07-20T22:27:47.840Z,5.10
2018-07-20T22:30:16.425Z,5.50
2018-07-20T22:32:45.050Z,5.03
2018-07-20T22:35:13.698Z,4.67
2018-07-20T22:37:42.350Z,4.87
2018-07-20T22:40:10.954Z,5.03
2018-07-20T22:42:39.610Z,4.90
2018-07-20T22:45:08.311Z,5.10
2018-07-20T22:47:37.025Z,4.80
2018-07-20T22:50:13.794Z,4.53
2018-07-20T22:52:43.781Z,4.73
2018-07-20T22:55:12.402Z,5.27
2018-07-20T22:57:41.025Z,4.80
2018-07-20T23:00:09.709Z,5.13
2018-07-20T23:02:38.346Z,5.13
2018-07-20T23:05:07.145Z,4.50
2018-07-20T23:07:35.785Z,4.63
2018-07-20T23:10:04.746Z,4.87
2018-07-20T23:12:33.500Z,5.00
2018-07-20T23:15:02.165Z,5.33
2018-07-20T23:17:30.757Z,5.60
2018-07-20T23:19:59.493Z,5.30
2018-07-20T23:22:28.134Z,4.77
2018-07-20T23:24:56.889Z,5.20
2018-07-20T23:27:25.615Z,5.43
2018-07-20T23:29:54.270Z,5.00
2018-07-20T23:32:22.934Z,4.90
2018-07-20T23:34:51.557Z,5.50
2018-07-20T23:37:20.188Z,5.17
2018-07-20T23:39:48.833Z,5.17
2018-07-20T23:42:17.476Z,5.50
2018-07-20T23:44:46.270Z,5.13
2018-07-20T23:47:14.951Z,5.13
2018-07-20T23:49:43.721Z,5.07
2018-07-20T23:52:12.429Z,5.20
2018-07-20T23:54:41.114Z,5.10
2018-07-20T23:57:09.864Z,5.00
2018-07-20T23:59:38.508Z,5.33
